Time;durP1;ratioP1;P1;durP2;ratioP2;P2;SDS_P1;SDS_P2;PMS_P1;PMS_P2;Temp;Humidity;BMP_temperature;BMP_pressure;BME280_temperature;BME280_humidity;BME280_pressure;Samples;Min_cycle;Max_cycle;Signal;HPM_P1;HPM_P2
2024/04/04 00:01:17;;;;;;;16.30;6.85;;;;;;;;;;5012002;28;20067;-66
2024/04/04 00:03:45;;;;;;;18.25;8.80;;;;;;;;;;5011712;28;20032;-66
2024/04/04 00:06:10;;;;;;;16.15;7.72;;;;;;;;;;5016133;28;20480;-66
2024/04/04 00:08:36;;;;;;;15.45;7.50;;;;;;;;;;5016019;28;20056;-66
2024/04/04 00:11:11;;;;;;;18.88;8.68;;;;;;;;;;5009779;28;20402;-65
2024/04/04 00:13:36;;;;;;;18.45;9.05;;;;;;;;;;5016613;28;20462;-66
2024/04/04 00:16:02;;;;;;;17.58;9.93;;;;;;;;;;5016266;28;20026;-66
2024/04/04 00:18:27;;;;;;;20.58;9.98;;;;;;;;;;5016089;28;20018;-66
2024/04/04 00:20:53;;;;;;;17.17;8.18;;;;;;;;;;5016597;28;20022;-66
2024/04/04 00:23:18;;;;;;;24.75;9.75;;;;;;;;;;5016162;28;20072;-66
2024/04/04 00:25:44;;;;;;;24.02;9.48;;;;;;;;;;5016100;28;20028;-66
2024/04/04 00:28:09;;;;;;;21.73;10.15;;;;;;;;;;5016100;28;20056;-66
2024/04/04 00:30:34;;;;;;;24.73;9.55;;;;;;;;;;5016098;28;20030;-66
2024/04/04 00:33:00;;;;;;;26.35;10.98;;;;;;;;;;5015404;28;20018;-66
2024/04/04 00:35:26;;;;;;;26.15;12.68;;;;;;;;;;5015844;28;20029;-66
2024/04/04 00:37:51;;;;;;;28.17;12.48;;;;;;;;;;5016252;28;20068;-66
2024/04/04 00:40:16;;;;;;;26.75;10.70;;;;;;;;;;5016041;28;20018;-66
2024/04/04 00:42:42;;;;;;;32.53;11.98;;;;;;;;;;5016150;28;20499;-66
2024/04/04 00:45:07;;;;;;;25.73;10.80;;;;;;;;;;5013242;28;20022;-64
2024/04/04 00:47:32;;;;;;;29.38;12.48;;;;;;;;;;5006008;28;20025;-65
2024/04/04 00:49:58;;;;;;;29.52;11.55;;;;;;;;;;4999398;28;20404;-65
2024/04/04 00:52:23;;;;;;;30.15;12.18;;;;;;;;;;5002603;28;20018;-66
2024/04/04 00:54:49;;;;;;;28.65;11.70;;;;;;;;;;4995508;28;20030;-66
2024/04/04 00:57:15;;;;;;;30.48;11.48;;;;;;;;;;5000706;28;20022;-66
2024/04/04 00:59:40;;;;;;;36.25;12.70;;;;;;;;;;4997824;28;20494;-65
2024/04/04 01:02:05;;;;;;;22.60;10.43;;;;;;;;;;4994469;28;20400;-66
2024/04/04 01:04:31;;;;;;;23.80;10.68;;;;;;;;;;5007949;28;20022;-65
2024/04/04 01:06:56;;;;;;;22.63;8.23;;;;;;;;;;5015703;28;20521;-66
2024/04/04 01:09:22;;;;;;;24.63;7.90;;;;;;;;;;5014259;28;20032;-65
2024/04/04 01:11:47;;;;;;;23.77;7.53;;;;;;;;;;5015396;28;20030;-66
2024/04/04 01:14:13;;;;;;;18.20;7.55;;;;;;;;;;5015394;28;20026;-66
2024/04/04 01:16:38;;;;;;;22.20;7.05;;;;;;;;;;5015104;28;20045;-66
2024/04/04 01:19:04;;;;;;;11.43;5.57;;;;;;;;;;5015042;28;20026;-66
2024/04/04 01:21:29;;;;;;;24.58;6.43;;;;;;;;;;5014290;28;20022;-66
2024/04/04 01:23:54;;;;;;;12.00;4.80;;;;;;;;;;5013782;28;20026;-66
2024/04/04 01:26:20;;;;;;;15.30;5.65;;;;;;;;;;5015085;28;20036;-66
2024/04/04 01:28:45;;;;;;;12.10;5.03;;;;;;;;;;5015460;28;20388;-67
2024/04/04 01:31:11;;;;;;;13.95;5.03;;;;;;;;;;5015074;28;20028;-66
2024/04/04 01:33:36;;;;;;;29.95;7.18;;;;;;;;;;5014485;28;20062;-66
2024/04/04 01:36:02;;;;;;;20.52;5.18;;;;;;;;;;5015307;28;20022;-66
2024/04/04 01:38:27;;;;;;;9.95;4.55;;;;;;;;;;5015234;28;20033;-66
2024/04/04 01:40:54;;;;;;;15.73;5.10;;;;;;;;;;5014877;28;20026;-66
2024/04/04 01:43:19;;;;;;;12.95;5.25;;;;;;;;;;5015213;28;20058;-66
2024/04/04 01:45:44;;;;;;;20.70;5.57;;;;;;;;;;5014973;28;20442;-66
2024/04/04 01:48:10;;;;;;;18.15;5.50;;;;;;;;;;5014294;28;20029;-66
2024/04/04 01:50:35;;;;;;;21.83;6.00;;;;;;;;;;5014968;28;20026;-66
2024/04/04 01:53:00;;;;;;;21.23;4.70;;;;;;;;;;5014721;28;20472;-66
2024/04/04 01:55:31;;;;;;;16.27;6.10;;;;;;;;;;5014678;28;20030;-66
2024/04/04 01:57:57;;;;;;;25.25;5.13;;;;;;;;;;5014392;28;20049;-66
2024/04/04 02:00:23;;;;;;;24.10;4.10;;;;;;;;;;5014518;28;20473;-66
2024/04/04 02:02:48;;;;;;;19.30;5.05;;;;;;;;;;5013376;28;20037;-66
2024/04/04 02:05:13;;;;;;;19.63;5.30;;;;;;;;;;5014403;28;20022;-66
2024/04/04 02:07:39;;;;;;;21.50;6.90;;;;;;;;;;5014749;28;20483;-66
2024/04/04 02:10:05;;;;;;;19.20;4.57;;;;;;;;;;5013689;28;20026;-66
2024/04/04 02:12:30;;;;;;;13.07;4.53;;;;;;;;;;5014568;28;20061;-66
2024/04/04 02:14:56;;;;;;;21.20;4.97;;;;;;;;;;5014856;28;20379;-66
2024/04/04 02:17:21;;;;;;;27.73;6.30;;;;;;;;;;5014184;28;20026;-66
2024/04/04 02:19:46;;;;;;;20.65;4.82;;;;;;;;;;5013711;28;20386;-66
2024/04/04 02:22:12;;;;;;;12.85;4.68;;;;;;;;;;5014403;28;20033;-66
2024/04/04 02:24:37;;;;;;;15.50;4.03;;;;;;;;;;5014099;28;20026;-66
2024/04/04 02:27:03;;;;;;;21.95;4.82;;;;;;;;;;5014396;28;20025;-66
2024/04/04 02:29:28;;;;;;;22.77;5.28;;;;;;;;;;5014338;28;20025;-66
2024/04/04 02:31:54;;;;;;;18.63;3.83;;;;;;;;;;5013466;28;20032;-66
2024/04/04 02:34:19;;;;;;;19.77;5.57;;;;;;;;;;5014036;28;20036;-66
2024/04/04 02:36:45;;;;;;;33.88;5.45;;;;;;;;;;5014502;28;20474;-66
2024/04/04 02:39:13;;;;;;;13.82;3.72;;;;;;;;;;5013856;28;20036;-66
2024/04/04 02:41:40;;;;;;;16.25;4.40;;;;;;;;;;5013470;28;20376;-66
2024/04/04 02:44:05;;;;;;;19.60;4.97;;;;;;;;;;5013923;28;20032;-66
2024/04/04 02:46:31;;;;;;;19.50;5.13;;;;;;;;;;5013967;28;20471;-66
2024/04/04 02:48:57;;;;;;;20.42;4.65;;;;;;;;;;5011495;28;20025;-65
2024/04/04 02:51:22;;;;;;;15.55;4.05;;;;;;;;;;5002550;28;20036;-66
2024/04/04 02:53:48;;;;;;;21.33;5.93;;;;;;;;;;4999273;28;20034;-66
2024/04/04 02:56:13;;;;;;;23.77;6.05;;;;;;;;;;4993948;28;20063;-66
2024/04/04 02:58:38;;;;;;;14.80;4.13;;;;;;;;;;4993297;28;20026;-65
2024/04/04 03:01:04;;;;;;;11.20;4.18;;;;;;;;;;4993689;28;20026;-66
2024/04/04 03:03:29;;;;;;;25.25;5.82;;;;;;;;;;5019433;28;20014;-66
2024/04/04 03:05:55;;;;;;;15.07;4.07;;;;;;;;;;5010154;28;20522;-66
2024/04/04 03:08:20;;;;;;;25.08;6.07;;;;;;;;;;5012026;28;20075;-66
2024/04/04 03:10:45;;;;;;;17.10;4.35;;;;;;;;;;5012527;28;20033;-66
2024/04/04 03:13:11;;;;;;;23.48;4.88;;;;;;;;;;5010672;28;20021;-67
2024/04/04 03:15:36;;;;;;;16.48;5.30;;;;;;;;;;5013287;28;20018;-66
2024/04/04 03:18:01;;;;;;;11.85;4.60;;;;;;;;;;5013286;28;20030;-67
2024/04/04 03:20:27;;;;;;;20.38;3.70;;;;;;;;;;5013070;28;20020;-66
2024/04/04 03:22:52;;;;;;;15.73;4.32;;;;;;;;;;5011073;28;20498;-66
2024/04/04 03:25:18;;;;;;;14.63;4.38;;;;;;;;;;4997556;28;20081;-66
2024/04/04 03:27:43;;;;;;;22.80;5.03;;;;;;;;;;5007792;28;20043;-66
2024/04/04 03:30:09;;;;;;;14.75;5.22;;;;;;;;;;5012615;28;20030;-66
2024/04/04 03:32:34;;;;;;;14.60;4.03;;;;;;;;;;5006461;28;20046;-66
2024/04/04 03:34:59;;;;;;;12.13;4.28;;;;;;;;;;4998013;28;20468;-66
2024/04/04 03:37:25;;;;;;;14.77;4.00;;;;;;;;;;5009072;28;20034;-66
2024/04/04 03:39:52;;;;;;;12.82;3.67;;;;;;;;;;5012642;28;20030;-66
2024/04/04 03:42:17;;;;;;;22.27;3.90;;;;;;;;;;5026525;28;20026;-65
2024/04/04 03:44:42;;;;;;;14.98;4.72;;;;;;;;;;5012326;28;20049;-66
2024/04/04 03:47:08;;;;;;;18.95;4.68;;;;;;;;;;5011201;28;20087;-66
2024/04/04 03:49:33;;;;;;;27.17;5.38;;;;;;;;;;5012732;28;20028;-66
2024/04/04 03:51:58;;;;;;;19.98;7.72;;;;;;;;;;5012814;28;20029;-66
2024/04/04 03:54:24;;;;;;;14.63;4.60;;;;;;;;;;5012652;28;20027;-66
2024/04/04 03:56:49;;;;;;;19.60;5.05;;;;;;;;;;5012776;28;20034;-66
2024/04/04 03:59:14;;;;;;;15.70;4.53;;;;;;;;;;5011976;28;20022;-66
2024/04/04 04:01:40;;;;;;;19.33;5.13;;;;;;;;;;5012443;28;20024;-66
2024/04/04 04:04:05;;;;;;;15.77;4.18;;;;;;;;;;5012720;28;20087;-66
2024/04/04 04:06:31;;;;;;;24.85;5.75;;;;;;;;;;5012320;28;20028;-66
2024/04/04 04:08:56;;;;;;;21.27;4.60;;;;;;;;;;5011980;28;20021;-66
2024/04/04 04:11:21;;;;;;;22.60;5.90;;;;;;;;;;5009121;28;20026;-66
2024/04/04 04:13:47;;;;;;;16.48;5.80;;;;;;;;;;4998540;28;20034;-66
2024/04/04 04:16:16;;;;;;;15.07;4.22;;;;;;;;;;5004449;28;20023;-66
2024/04/04 04:18:41;;;;;;;13.48;4.65;;;;;;;;;;5012175;28;20037;-66
2024/04/04 04:21:24;;;;;;;23.73;4.65;;;;;;;;;;5011334;28;20022;-66
2024/04/04 04:23:51;;;;;;;15.82;4.03;;;;;;;;;;5012747;28;20077;-66
2024/04/04 04:26:16;;;;;;;18.48;4.50;;;;;;;;;;5002255;28;20027;-66
2024/04/04 04:28:42;;;;;;;16.52;4.60;;;;;;;;;;4993052;28;20480;-66
2024/04/04 04:31:30;;;;;;;22.90;5.55;;;;;;;;;;4994714;28;20022;-66
2024/04/04 04:33:57;;;;;;;14.98;3.72;;;;;;;;;;4992948;28;20543;-66
2024/04/04 04:36:25;;;;;;;23.67;4.65;;;;;;;;;;5008534;28;20104;-66
2024/04/04 04:38:50;;;;;;;18.75;4.05;;;;;;;;;;5012267;28;20022;-66
2024/04/04 04:41:17;;;;;;;15.60;4.05;;;;;;;;;;5014964;28;20096;-66
2024/04/04 04:43:44;;;;;;;23.63;4.53;;;;;;;;;;5015742;28;20030;-66
2024/04/04 04:46:10;;;;;;;21.98;3.42;;;;;;;;;;5015800;28;20046;-66
2024/04/04 04:48:37;;;;;;;28.75;5.72;;;;;;;;;;5016197;28;20018;-66
2024/04/04 04:51:02;;;;;;;20.90;3.78;;;;;;;;;;5013941;28;20040;-66
2024/04/04 04:53:27;;;;;;;15.00;3.22;;;;;;;;;;5015591;28;20037;-66
2024/04/04 04:55:53;;;;;;;8.65;2.92;;;;;;;;;;5015543;28;20026;-67
2024/04/04 04:58:19;;;;;;;15.35;3.13;;;;;;;;;;5015465;28;20032;-66
2024/04/04 05:00:45;;;;;;;18.77;4.05;;;;;;;;;;5015264;28;20041;-66
2024/04/04 05:03:10;;;;;;;24.33;5.20;;;;;;;;;;5012913;28;20022;-66
2024/04/04 05:05:35;;;;;;;19.60;4.47;;;;;;;;;;5012284;28;20038;-66
2024/04/04 05:08:02;;;;;;;10.93;3.15;;;;;;;;;;5015584;28;20028;-66
2024/04/04 05:10:29;;;;;;;15.48;4.00;;;;;;;;;;5014786;28;20037;-66
2024/04/04 05:12:54;;;;;;;16.83;4.38;;;;;;;;;;5013709;28;20026;-66
2024/04/04 05:15:20;;;;;;;6.97;2.95;;;;;;;;;;5002489;28;20038;-66
2024/04/04 05:17:45;;;;;;;15.02;3.72;;;;;;;;;;4995494;28;20078;-66
2024/04/04 05:20:13;;;;;;;19.60;4.40;;;;;;;;;;5001445;28;20022;-66
2024/04/04 05:22:38;;;;;;;16.08;3.47;;;;;;;;;;4995179;28;20026;-66
2024/04/04 05:25:04;;;;;;;17.73;4.35;;;;;;;;;;4995427;28;20034;-66
2024/04/04 05:27:29;;;;;;;17.42;4.03;;;;;;;;;;4995724;28;20104;-66
2024/04/04 05:29:55;;;;;;;27.33;5.65;;;;;;;;;;4994932;28;20023;-66
2024/04/04 05:32:20;;;;;;;18.13;4.45;;;;;;;;;;4995665;28;20490;-66
2024/04/04 05:34:47;;;;;;;19.98;6.30;;;;;;;;;;4995484;28;20026;-66
2024/04/04 05:37:13;;;;;;;14.57;5.43;;;;;;;;;;4995627;28;20057;-66
2024/04/04 05:39:38;;;;;;;20.67;4.55;;;;;;;;;;4996004;28;20110;-66
2024/04/04 05:42:04;;;;;;;25.52;6.28;;;;;;;;;;4994751;28;20023;-66
2024/04/04 05:44:29;;;;;;;18.52;5.10;;;;;;;;;;4995095;28;20022;-66
2024/04/04 05:46:54;;;;;;;12.18;4.53;;;;;;;;;;4995656;28;20416;-66
2024/04/04 05:49:20;;;;;;;18.95;5.20;;;;;;;;;;4995313;28;20038;-66
2024/04/04 05:51:45;;;;;;;17.55;5.32;;;;;;;;;;4994585;28;20026;-66
2024/04/04 05:54:10;;;;;;;13.35;5.32;;;;;;;;;;4995260;28;20380;-66
2024/04/04 05:56:36;;;;;;;16.67;4.70;;;;;;;;;;4994788;28;20049;-66
2024/04/04 05:59:01;;;;;;;19.98;4.43;;;;;;;;;;4995066;28;20045;-67
2024/04/04 06:01:26;;;;;;;19.88;5.22;;;;;;;;;;4994874;28;20072;-67
2024/04/04 06:03:52;;;;;;;14.32;5.10;;;;;;;;;;4995305;28;20033;-67
2024/04/04 06:06:17;;;;;;;16.30;5.03;;;;;;;;;;4994498;28;20026;-66
2024/04/04 06:08:43;;;;;;;16.13;4.68;;;;;;;;;;4995077;28;20376;-66
2024/04/04 06:11:08;;;;;;;14.00;5.40;;;;;;;;;;5029945;23;20042;-67
2024/04/04 06:13:33;;;;;;;22.55;5.07;;;;;;;;;;5014539;28;20022;-66
2024/04/04 06:16:03;;;;;;;21.80;6.30;;;;;;;;;;5014226;28;20014;-66
2024/04/04 06:18:28;;;;;;;29.50;6.47;;;;;;;;;;5014354;28;20410;-66
2024/04/04 06:20:54;;;;;;;25.40;6.40;;;;;;;;;;5013521;28;20026;-66
2024/04/04 06:23:19;;;;;;;17.35;6.95;;;;;;;;;;5014718;28;20065;-67
2024/04/04 06:25:45;;;;;;;18.50;5.25;;;;;;;;;;5013959;28;20411;-67
2024/04/04 06:28:10;;;;;;;17.17;5.07;;;;;;;;;;5014092;28;20025;-67
2024/04/04 06:30:35;;;;;;;11.82;5.25;;;;;;;;;;5013817;28;20029;-66
2024/04/04 06:33:01;;;;;;;23.65;6.55;;;;;;;;;;5014174;28;20499;-66
2024/04/04 06:35:26;;;;;;;15.25;5.43;;;;;;;;;;5013317;28;20022;-66
2024/04/04 06:37:52;;;;;;;13.90;5.28;;;;;;;;;;5014049;28;20021;-66
2024/04/04 06:40:17;;;;;;;20.98;5.30;;;;;;;;;;5013924;28;20053;-66
2024/04/04 06:42:42;;;;;;;11.13;5.20;;;;;;;;;;5013715;28;20025;-66
2024/04/04 06:45:08;;;;;;;19.17;6.18;;;;;;;;;;5013799;28;20034;-67
2024/04/04 06:47:33;;;;;;;19.55;5.50;;;;;;;;;;5013210;28;20395;-66
2024/04/04 06:49:59;;;;;;;21.35;5.88;;;;;;;;;;5013629;28;20031;-66
2024/04/04 06:52:24;;;;;;;24.05;5.97;;;;;;;;;;5013558;28;20026;-66
2024/04/04 06:54:49;;;;;;;16.23;5.30;;;;;;;;;;5010370;28;20076;-66
2024/04/04 06:57:15;;;;;;;18.48;4.88;;;;;;;;;;5012657;28;20143;-66
2024/04/04 06:59:40;;;;;;;23.45;6.57;;;;;;;;;;5012556;28;20034;-66
2024/04/04 07:02:06;;;;;;;10.95;5.07;;;;;;;;;;5011570;28;20030;-66
2024/04/04 07:04:31;;;;;;;11.43;5.00;;;;;;;;;;5012632;28;20041;-66
2024/04/04 07:06:57;;;;;;;16.13;4.80;;;;;;;;;;5013277;28;20026;-66
2024/04/04 07:09:22;;;;;;;15.23;5.88;;;;;;;;;;5012467;28;20022;-66
2024/04/04 07:11:48;;;;;;;13.85;4.43;;;;;;;;;;5012139;28;20026;-66
2024/04/04 07:14:13;;;;;;;12.55;5.30;;;;;;;;;;5011112;28;20054;-66
2024/04/04 07:16:39;;;;;;;13.50;5.10;;;;;;;;;;5013187;28;20128;-66
2024/04/04 07:19:04;;;;;;;16.55;4.78;;;;;;;;;;5012533;28;20396;-66
2024/04/04 07:21:30;;;;;;;11.95;4.72;;;;;;;;;;5013245;28;20039;-66
2024/04/04 07:23:55;;;;;;;17.33;5.15;;;;;;;;;;5012751;28;20022;-66
2024/04/04 07:26:21;;;;;;;12.80;5.13;;;;;;;;;;5011015;28;20065;-66
2024/04/04 07:28:46;;;;;;;17.10;6.05;;;;;;;;;;5012093;28;20029;-66
2024/04/04 07:31:12;;;;;;;12.48;5.03;;;;;;;;;;5012733;28;20021;-66
2024/04/04 07:33:37;;;;;;;15.32;7.40;;;;;;;;;;5012797;28;20026;-66
2024/04/04 07:36:02;;;;;;;14.05;5.97;;;;;;;;;;5012304;28;20029;-66
2024/04/04 07:38:28;;;;;;;12.70;5.15;;;;;;;;;;5013163;28;20045;-66
2024/04/04 07:40:53;;;;;;;14.32;5.13;;;;;;;;;;5012050;28;20034;-67
2024/04/04 07:43:18;;;;;;;12.60;5.97;;;;;;;;;;5012993;28;20044;-67
2024/04/04 07:45:44;;;;;;;19.52;5.00;;;;;;;;;;5012561;28;20091;-66
2024/04/04 07:48:16;;;;;;;12.23;5.65;;;;;;;;;;5013148;28;20041;-66
2024/04/04 07:50:42;;;;;;;14.52;5.97;;;;;;;;;;5012652;28;20052;-67
2024/04/04 07:53:08;;;;;;;14.77;4.80;;;;;;;;;;5013148;28;20030;-67
2024/04/04 07:55:35;;;;;;;14.93;5.07;;;;;;;;;;5012439;28;20044;-67
2024/04/04 07:58:00;;;;;;;11.50;4.80;;;;;;;;;;5013100;28;20060;-66
2024/04/04 08:00:25;;;;;;;18.08;4.97;;;;;;;;;;5012640;28;20025;-67
2024/04/04 08:02:51;;;;;;;16.08;5.32;;;;;;;;;;5012830;28;20030;-67
2024/04/04 08:05:16;;;;;;;14.02;5.00;;;;;;;;;;5011581;28;20041;-66
2024/04/04 08:07:41;;;;;;;14.80;4.47;;;;;;;;;;5012655;28;20026;-67
2024/04/04 08:10:08;;;;;;;13.35;4.82;;;;;;;;;;5012436;28;20033;-66
2024/04/04 08:12:35;;;;;;;18.15;4.97;;;;;;;;;;5012132;28;20025;-66
2024/04/04 08:15:03;;;;;;;11.75;4.65;;;;;;;;;;5014088;28;20072;-66
2024/04/04 08:17:30;;;;;;;14.10;4.82;;;;;;;;;;5016359;28;20033;-66
2024/04/04 08:19:57;;;;;;;15.93;5.47;;;;;;;;;;5013732;28;20083;-66
2024/04/04 08:22:22;;;;;;;11.93;4.63;;;;;;;;;;5016562;28;20028;-66
2024/04/04 08:24:48;;;;;;;14.00;4.65;;;;;;;;;;5015949;28;20418;-66
2024/04/04 08:27:13;;;;;;;12.65;4.90;;;;;;;;;;5014108;28;20483;-66
2024/04/04 08:29:40;;;;;;;14.07;5.22;;;;;;;;;;5014683;28;20030;-66
2024/04/04 08:32:06;;;;;;;9.00;4.20;;;;;;;;;;5015329;28;20454;-66
2024/04/04 08:34:32;;;;;;;15.27;4.60;;;;;;;;;;5015102;28;20121;-66
2024/04/04 08:36:58;;;;;;;10.93;4.50;;;;;;;;;;5014969;28;20026;-66
2024/04/04 08:39:24;;;;;;;13.30;4.20;;;;;;;;;;5016291;28;20050;-66
2024/04/04 08:41:49;;;;;;;8.80;5.47;;;;;;;;;;5015359;28;20018;-66
2024/04/04 08:44:16;;;;;;;11.80;4.65;;;;;;;;;;5016306;28;20102;-65
2024/04/04 08:46:43;;;;;;;12.32;4.95;;;;;;;;;;5015392;28;20507;-66
2024/04/04 08:49:08;;;;;;;11.70;5.10;;;;;;;;;;5015109;28;20475;-66
2024/04/04 08:51:34;;;;;;;12.25;4.68;;;;;;;;;;5015800;28;20041;-66
2024/04/04 08:53:59;;;;;;;11.30;5.13;;;;;;;;;;5015850;28;20028;-67
2024/04/04 08:56:25;;;;;;;10.93;5.03;;;;;;;;;;5015182;28;20025;-67
2024/04/04 08:58:51;;;;;;;14.75;5.25;;;;;;;;;;5015402;28;20034;-66
2024/04/04 09:01:17;;;;;;;14.40;4.85;;;;;;;;;;5014984;28;20040;-64
2024/04/04 09:03:42;;;;;;;12.02;4.90;;;;;;;;;;5015874;28;20029;-67
2024/04/04 09:06:07;;;;;;;8.60;4.40;;;;;;;;;;5015561;28;20022;-67
2024/04/04 09:08:36;;;;;;;14.77;4.07;;;;;;;;;;5015825;28;20030;-67
2024/04/04 09:11:01;;;;;;;10.63;3.70;;;;;;;;;;5015078;28;20038;-67
2024/04/04 09:13:26;;;;;;;13.75;5.38;;;;;;;;;;5014819;28;20021;-66
2024/04/04 09:15:59;;;;;;;12.48;4.60;;;;;;;;;;5014308;28;20079;-67
2024/04/04 09:18:24;;;;;;;9.43;3.47;;;;;;;;;;5013607;28;20606;-68
2024/04/04 09:20:50;;;;;;;18.35;4.10;;;;;;;;;;5013759;28;20029;-66
2024/04/04 09:23:15;;;;;;;6.13;3.47;;;;;;;;;;5013007;28;20391;-66
2024/04/04 09:25:41;;;;;;;12.35;4.30;;;;;;;;;;5013083;28;20018;-66
2024/04/04 09:28:08;;;;;;;11.35;3.85;;;;;;;;;;5013695;28;20369;-66
2024/04/04 09:30:35;;;;;;;13.68;3.75;;;;;;;;;;5013415;28;20032;-65
2024/04/04 09:33:00;;;;;;;8.82;3.05;;;;;;;;;;5006974;28;20029;-66
2024/04/04 09:35:26;;;;;;;9.45;3.67;;;;;;;;;;5012651;28;20037;-65
2024/04/04 09:37:51;;;;;;;7.75;3.20;;;;;;;;;;5012704;28;20037;-66
2024/04/04 09:40:17;;;;;;;6.93;3.17;;;;;;;;;;5013476;28;20042;-66
2024/04/04 09:42:44;;;;;;;8.93;3.35;;;;;;;;;;5013293;28;20037;-66
2024/04/04 09:45:11;;;;;;;11.90;3.30;;;;;;;;;;5012997;28;20033;-66
2024/04/04 09:47:47;;;;;;;13.23;4.18;;;;;;;;;;5013227;28;20082;-66
2024/04/04 09:50:17;;;;;;;15.60;4.47;;;;;;;;;;5012588;28;20018;-65
2024/04/04 09:52:43;;;;;;;15.43;4.38;;;;;;;;;;5012586;28;20056;-66
2024/04/04 09:55:10;;;;;;;9.73;5.13;;;;;;;;;;5014311;28;20491;-66
2024/04/04 09:57:36;;;;;;;12.68;3.95;;;;;;;;;;5011710;28;20038;-66
2024/04/04 10:00:14;;;;;;;6.65;4.32;;;;;;;;;;5012736;28;20513;-67
2024/04/04 10:02:58;;;;;;;8.27;3.67;;;;;;;;;;5014426;28;20025;-66
2024/04/04 10:05:35;;;;;;;9.27;4.07;;;;;;;;;;5013155;28;20034;-67
2024/04/04 10:08:07;;;;;;;15.80;4.03;;;;;;;;;;5013335;28;20026;-66
2024/04/04 10:10:32;;;;;;;10.95;4.95;;;;;;;;;;5013639;28;20030;-66
2024/04/04 10:12:57;;;;;;;9.80;4.07;;;;;;;;;;5014273;28;20052;-66
2024/04/04 10:15:23;;;;;;;12.63;5.18;;;;;;;;;;5015175;28;20374;-66
2024/04/04 10:17:49;;;;;;;12.15;4.80;;;;;;;;;;5013838;28;20483;-67
2024/04/04 10:20:16;;;;;;;8.88;5.47;;;;;;;;;;5014368;28;20022;-67
2024/04/04 10:22:42;;;;;;;10.95;5.57;;;;;;;;;;5013992;28;20483;-66
2024/04/04 10:25:07;;;;;;;9.80;4.43;;;;;;;;;;5013423;28;20037;-66
2024/04/04 10:27:33;;;;;;;8.43;4.63;;;;;;;;;;5013917;28;20022;-67
2024/04/04 10:29:58;;;;;;;9.57;4.95;;;;;;;;;;5014165;28;20022;-66
2024/04/04 10:32:27;;;;;;;7.38;4.30;;;;;;;;;;5013704;28;20028;-67
2024/04/04 10:35:00;;;;;;;7.30;4.47;;;;;;;;;;5013735;28;20026;-67
2024/04/04 10:37:25;;;;;;;10.82;5.93;;;;;;;;;;5013558;28;20032;-67
2024/04/04 10:39:51;;;;;;;12.45;5.07;;;;;;;;;;5013234;28;20025;-67
2024/04/04 10:42:16;;;;;;;12.48;5.05;;;;;;;;;;5010377;28;20500;-67
2024/04/04 10:44:42;;;;;;;12.45;6.03;;;;;;;;;;5013583;28;20025;-67
2024/04/04 10:47:08;;;;;;;13.20;6.63;;;;;;;;;;5012932;28;20022;-66
2024/04/04 10:49:34;;;;;;;13.23;7.22;;;;;;;;;;5014002;28;20157;-67
2024/04/04 10:52:02;;;;;;;14.60;6.32;;;;;;;;;;5013520;28;20018;-67
2024/04/04 10:54:28;;;;;;;11.75;5.72;;;;;;;;;;5028919;28;20489;-67
2024/04/04 10:56:54;;;;;;;11.32;5.10;;;;;;;;;;5013071;28;20091;-67
2024/04/04 10:59:19;;;;;;;17.35;5.18;;;;;;;;;;5011563;28;20037;-67
2024/04/04 11:01:46;;;;;;;7.07;4.95;;;;;;;;;;5013235;28;20030;-67
2024/04/04 11:04:12;;;;;;;8.43;4.93;;;;;;;;;;5012322;28;20026;-67
2024/04/04 11:06:39;;;;;;;10.50;4.20;;;;;;;;;;5012658;28;20041;-67
2024/04/04 11:09:19;;;;;;;5.82;4.13;;;;;;;;;;5012638;28;20060;-67
2024/04/04 11:11:50;;;;;;;9.20;4.63;;;;;;;;;;5013068;28;20380;-67
2024/04/04 11:14:23;;;;;;;10.82;4.43;;;;;;;;;;5012843;28;20425;-68
2024/04/04 11:16:51;;;;;;;8.00;4.32;;;;;;;;;;5012846;28;20038;-67
2024/04/04 11:19:17;;;;;;;11.43;4.30;;;;;;;;;;5013130;28;20048;-67
2024/04/04 11:21:43;;;;;;;9.82;3.45;;;;;;;;;;5012845;28;20487;-67
2024/04/04 11:24:08;;;;;;;8.77;3.95;;;;;;;;;;5011105;28;20083;-67
2024/04/04 11:26:34;;;;;;;10.10;4.38;;;;;;;;;;5012635;28;20034;-67
2024/04/04 11:28:59;;;;;;;5.82;3.67;;;;;;;;;;5012592;28;20022;-67
2024/04/04 11:31:25;;;;;;;9.93;3.75;;;;;;;;;;5012938;28;20108;-68
2024/04/04 11:33:51;;;;;;;10.45;4.07;;;;;;;;;;5012710;28;20033;-67
2024/04/04 11:36:16;;;;;;;5.03;3.70;;;;;;;;;;5012249;28;20099;-67
2024/04/04 11:38:41;;;;;;;7.70;3.47;;;;;;;;;;5013035;28;20029;-67
2024/04/04 11:41:07;;;;;;;11.45;4.57;;;;;;;;;;5013076;28;20025;-68
2024/04/04 11:43:34;;;;;;;8.32;4.10;;;;;;;;;;5012982;28;20021;-68
2024/04/04 11:46:00;;;;;;;8.55;4.13;;;;;;;;;;5012631;28;20030;-67
2024/04/04 11:48:26;;;;;;;6.88;3.75;;;;;;;;;;5013694;28;20422;-67
2024/04/04 11:50:51;;;;;;;5.43;3.47;;;;;;;;;;5016880;28;20022;-67
2024/04/04 11:53:16;;;;;;;12.35;3.92;;;;;;;;;;5017208;28;20391;-67
2024/04/04 11:55:42;;;;;;;7.82;4.30;;;;;;;;;;5017408;28;20017;-67
2024/04/04 11:58:08;;;;;;;9.48;3.92;;;;;;;;;;5016806;28;20047;-67
2024/04/04 12:00:34;;;;;;;4.65;3.13;;;;;;;;;;5016776;28;20036;-68
2024/04/04 12:03:05;;;;;;;8.68;3.47;;;;;;;;;;5015491;28;20084;-68
2024/04/04 12:05:31;;;;;;;5.82;3.38;;;;;;;;;;5017062;28;20026;-68
2024/04/04 12:07:57;;;;;;;5.47;3.88;;;;;;;;;;5016019;28;20036;-67
2024/04/04 12:10:22;;;;;;;6.90;4.10;;;;;;;;;;5037735;23;20033;-68
2024/04/04 12:12:48;;;;;;;9.02;3.72;;;;;;;;;;4996162;28;20030;-67
2024/04/04 12:15:13;;;;;;;6.18;3.15;;;;;;;;;;4997344;28;20458;-67
2024/04/04 12:17:39;;;;;;;6.13;4.43;;;;;;;;;;4997249;28;20033;-68
2024/04/04 12:20:09;;;;;;;6.45;3.85;;;;;;;;;;4996259;28;20068;-68
2024/04/04 12:22:35;;;;;;;7.93;4.22;;;;;;;;;;4995744;28;20026;-68
2024/04/04 12:25:01;;;;;;;6.43;4.38;;;;;;;;;;5011698;28;20030;-68
2024/04/04 12:27:26;;;;;;;8.45;4.30;;;;;;;;;;4997023;28;20038;-68
2024/04/04 12:29:51;;;;;;;8.27;3.63;;;;;;;;;;4996828;28;20022;-67
2024/04/04 12:32:17;;;;;;;5.07;3.20;;;;;;;;;;4996777;28;20472;-68
2024/04/04 12:34:43;;;;;;;4.25;3.13;;;;;;;;;;4996906;28;20030;-68
2024/04/04 12:37:09;;;;;;;7.57;3.33;;;;;;;;;;4996705;28;20101;-67
2024/04/04 12:39:35;;;;;;;6.22;3.75;;;;;;;;;;4996250;28;20077;-68
2024/04/04 12:42:00;;;;;;;5.88;3.42;;;;;;;;;;4996525;28;20476;-67
2024/04/04 12:44:26;;;;;;;6.82;4.30;;;;;;;;;;4996885;28;20026;-67
2024/04/04 12:46:51;;;;;;;4.78;3.22;;;;;;;;;;4996490;28;20026;-68
2024/04/04 12:49:17;;;;;;;11.18;3.63;;;;;;;;;;4996541;28;20035;-67
2024/04/04 12:51:42;;;;;;;4.25;3.20;;;;;;;;;;4996627;28;20044;-67
2024/04/04 12:54:07;;;;;;;7.30;2.95;;;;;;;;;;4995940;28;20040;-68
2024/04/04 12:56:33;;;;;;;6.45;3.08;;;;;;;;;;4996466;28;20399;-67
2024/04/04 12:58:58;;;;;;;5.13;2.90;;;;;;;;;;4996416;28;20049;-68
2024/04/04 13:01:24;;;;;;;5.18;3.28;;;;;;;;;;4995095;28;20033;-67
2024/04/04 13:03:50;;;;;;;6.78;3.70;;;;;;;;;;4995061;28;20029;-68
2024/04/04 13:06:15;;;;;;;6.40;2.78;;;;;;;;;;4993734;28;20468;-68
2024/04/04 13:08:40;;;;;;;4.85;3.78;;;;;;;;;;4985932;28;20023;-69
2024/04/04 13:11:08;;;;;;;5.35;3.20;;;;;;;;;;4986697;28;20026;-68
2024/04/04 13:13:34;;;;;;;7.85;3.13;;;;;;;;;;4989595;28;20350;-68
2024/04/04 13:15:59;;;;;;;5.78;2.95;;;;;;;;;;4988161;28;20037;-67
2024/04/04 13:18:24;;;;;;;5.40;3.38;;;;;;;;;;4994302;28;20080;-68
2024/04/04 13:20:50;;;;;;;5.05;3.03;;;;;;;;;;4994652;28;20030;-68
2024/04/04 13:23:15;;;;;;;4.43;3.53;;;;;;;;;;4995767;28;20026;-68
2024/04/04 13:25:40;;;;;;;4.55;3.40;;;;;;;;;;4995547;28;20431;-68
2024/04/04 13:28:06;;;;;;;3.67;2.65;;;;;;;;;;4995189;28;20026;-68
2024/04/04 13:30:31;;;;;;;4.43;2.90;;;;;;;;;;4995553;28;20073;-68
2024/04/04 13:32:56;;;;;;;5.72;2.63;;;;;;;;;;4994288;28;20022;-68
2024/04/04 13:35:23;;;;;;;4.88;2.78;;;;;;;;;;4995597;28;20014;-67
2024/04/04 13:37:49;;;;;;;5.60;3.53;;;;;;;;;;4994777;28;20092;-68
2024/04/04 13:40:14;;;;;;;5.30;3.25;;;;;;;;;;4995329;28;20026;-68
2024/04/04 13:42:39;;;;;;;4.63;3.00;;;;;;;;;;4995659;28;20026;-68
2024/04/04 13:45:05;;;;;;;6.80;3.13;;;;;;;;;;4995855;28;20431;-68
2024/04/04 13:47:32;;;;;;;6.18;3.28;;;;;;;;;;4994204;28;20033;-68
2024/04/04 13:49:57;;;;;;;5.43;3.60;;;;;;;;;;4993960;28;20023;-68
2024/04/04 13:52:22;;;;;;;6.82;3.35;;;;;;;;;;4995305;28;20096;-67
2024/04/04 13:54:48;;;;;;;6.45;4.25;;;;;;;;;;4993904;28;20026;-67
2024/04/04 13:57:14;;;;;;;4.80;3.63;;;;;;;;;;4995031;28;20480;-68
2024/04/04 13:59:39;;;;;;;4.35;3.20;;;;;;;;;;4994894;28;20036;-67
2024/04/04 14:02:09;;;;;;;5.93;4.18;;;;;;;;;;4994895;28;20439;-67
2024/04/04 14:04:35;;;;;;;5.13;3.50;;;;;;;;;;4993194;28;20018;-67
2024/04/04 14:07:03;;;;;;;13.00;3.72;;;;;;;;;;4994798;28;20034;-68
2024/04/04 14:09:29;;;;;;;8.05;4.53;;;;;;;;;;5009699;28;20029;-67
2024/04/04 14:11:54;;;;;;;8.95;4.88;;;;;;;;;;4993768;28;20030;-67
2024/04/04 14:14:19;;;;;;;8.65;4.63;;;;;;;;;;4994425;28;20028;-67
2024/04/04 14:16:45;;;;;;;7.38;4.28;;;;;;;;;;4994727;28;20076;-67
2024/04/04 14:19:10;;;;;;;8.63;5.07;;;;;;;;;;4994256;28;20022;-68
2024/04/04 14:21:35;;;;;;;7.50;4.82;;;;;;;;;;4994781;28;20031;-67
2024/04/04 14:24:02;;;;;;;10.32;4.85;;;;;;;;;;4994772;28;20461;-68
2024/04/04 14:26:27;;;;;;;8.00;4.88;;;;;;;;;;4992556;28;20476;-68